sensor_id;sensor_type;location;lat;lon;timestamp;temperature;humidity
9410;DHT22;4744;52.576;13.568;2022-07-01T00:00:14;20.50;1.00
9410;DHT22;4744;52.576;13.568;2022-07-01T00:02:41;20.50;1.00
9410;DHT22;4744;52.576;13.568;2022-07-01T00:05:08;20.50;1.00
9410;DHT22;4744;52.576;13.568;2022-07-01T00:07:35;20.50;1.00
9410;DHT22;4744;52.576;13.568;2022-07-01T00:10:03;20.50;1.00
9410;DHT22;4744;52.576;13.568;2022-07-01T00:12:30;20.50;1.00
9410;DHT22;4744;52.576;13.568;2022-07-01T00:14:58;20.40;1.00
9410;DHT22;4744;52.576;13.568;2022-07-01T00:17:25;20.40;1.00
9410;DHT22;4744;52.576;13.568;2022-07-01T00:19:51;20.40;1.00
9410;DHT22;4744;52.576;13.568;2022-07-01T00:22:18;20.40;1.00
9410;DHT22;4744;52.576;13.568;2022-07-01T00:24:45;20.40;1.00
9410;DHT22;4744;52.576;13.568;2022-07-01T00:27:13;20.40;1.00
9410;DHT22;4744;52.576;13.568;2022-07-01T00:29:40;20.40;1.00
9410;DHT22;4744;52.576;13.568;2022-07-01T00:32:09;20.40;1.00
9410;DHT22;4744;52.576;13.568;2022-07-01T00:34:35;20.40;1.00
9410;DHT22;4744;52.576;13.568;2022-07-01T00:37:03;20.30;1.00
9410;DHT22;4744;52.576;13.568;2022-07-01T00:39:30;20.30;1.00
9410;DHT22;4744;52.576;13.568;2022-07-01T00:41:59;20.30;1.00
9410;DHT22;4744;52.576;13.568;2022-07-01T00:44:27;20.30;1.00
9410;DHT22;4744;52.576;13.568;2022-07-01T00:46:54;20.30;1.00
9410;DHT22;4744;52.576;13.568;2022-07-01T00:49:24;20.30;1.00
9410;DHT22;4744;52.576;13.568;2022-07-01T00:51:52;20.20;1.00
9410;DHT22;4744;52.576;13.568;2022-07-01T00:54:20;20.20;1.00
9410;DHT22;4744;52.576;13.568;2022-07-01T00:56:47;20.20;1.00
9410;DHT22;4744;52.576;13.568;2022-07-01T00:59:14;20.20;1.00
9410;DHT22;4744;52.576;13.568;2022-07-01T01:01:41;20.10;1.00
9410;DHT22;4744;52.576;13.568;2022-07-01T01:04:08;20.10;1.00
9410;DHT22;4744;52.576;13.568;2022-07-01T01:06:36;20.10;1.00
9410;DHT22;4744;52.576;13.568;2022-07-01T01:09:03;20.00;1.00
9410;DHT22;4744;52.576;13.568;2022-07-01T01:11:30;20.00;1.00
9410;DHT22;4744;52.576;13.568;2022-07-01T01:13:57;20.00;1.00
9410;DHT22;4744;52.576;13.568;2022-07-01T01:16:24;20.00;1.00
9410;DHT22;4744;52.576;13.568;2022-07-01T01:18:52;19.90;1.00
9410;DHT22;4744;52.576;13.568;2022-07-01T01:21:20;19.90;1.00
9410;DHT22;4744;52.576;13.568;2022-07-01T01:23:47;19.90;1.00
9410;DHT22;4744;52.576;13.568;2022-07-01T01:26:16;19.90;1.00
9410;DHT22;4744;52.576;13.568;2022-07-01T01:28:43;19.90;1.00
9410;DHT22;4744;52.576;13.568;2022-07-01T01:31:09;19.80;1.00
9410;DHT22;4744;52.576;13.568;2022-07-01T01:33:37;19.80;1.00
9410;DHT22;4744;52.576;13.568;2022-07-01T01:36:04;19.80;1.00
9410;DHT22;4744;52.576;13.568;2022-07-01T01:38:34;19.80;1.00
9410;DHT22;4744;52.576;13.568;2022-07-01T01:41:01;19.80;1.00
9410;DHT22;4744;52.576;13.568;2022-07-01T01:43:28;19.70;1.00
9410;DHT22;4744;52.576;13.568;2022-07-01T01:45:55;19.70;1.00
9410;DHT22;4744;52.576;13.568;2022-07-01T01:48:21;19.70;1.00
9410;DHT22;4744;52.576;13.568;2022-07-01T01:50:48;19.70;1.00
9410;DHT22;4744;52.576;13.568;2022-07-01T01:53:15;19.70;1.00
9410;DHT22;4744;52.576;13.568;2022-07-01T01:55:44;19.70;1.00
9410;DHT22;4744;52.576;13.568;2022-07-01T01:58:11;19.70;1.00
9410;DHT22;4744;52.576;13.568;2022-07-01T02:00:38;19.60;1.00
9410;DHT22;4744;52.576;13.568;2022-07-01T02:03:04;19.60;1.00
9410;DHT22;4744;52.576;13.568;2022-07-01T02:05:32;19.60;1.00
9410;DHT22;4744;52.576;13.568;2022-07-01T02:07:59;19.50;1.00
9410;DHT22;4744;52.576;13.568;2022-07-01T02:10:26;19.50;1.00
9410;DHT22;4744;52.576;13.568;2022-07-01T02:12:54;19.50;1.00
9410;DHT22;4744;52.576;13.568;2022-07-01T02:15:21;19.50;1.00
9410;DHT22;4744;52.576;13.568;2022-07-01T02:17:48;19.50;1.00
9410;DHT22;4744;52.576;13.568;2022-07-01T02:20:14;19.50;1.00
9410;DHT22;4744;52.576;13.568;2022-07-01T02:22:42;19.40;1.00
9410;DHT22;4744;52.576;13.568;2022-07-01T02:25:09;19.40;1.00
9410;DHT22;4744;52.576;13.568;2022-07-01T02:27:36;19.40;1.00
9410;DHT22;4744;52.576;13.568;2022-07-01T02:30:06;19.40;1.00
9410;DHT22;4744;52.576;13.568;2022-07-01T02:32:33;19.40;1.00
9410;DHT22;4744;52.576;13.568;2022-07-01T02:35:00;19.40;1.00
9410;DHT22;4744;52.576;13.568;2022-07-01T02:37:27;19.30;1.00
9410;DHT22;4744;52.576;13.568;2022-07-01T02:39:54;19.30;1.00
9410;DHT22;4744;52.576;13.568;2022-07-01T02:42:21;19.20;1.00
9410;DHT22;4744;52.576;13.568;2022-07-01T02:44:51;19.20;1.00
9410;DHT22;4744;52.576;13.568;2022-07-01T02:47:20;19.20;1.00
9410;DHT22;4744;52.576;13.568;2022-07-01T02:49:47;19.20;1.00
9410;DHT22;4744;52.576;13.568;2022-07-01T02:52:14;19.20;1.00
9410;DHT22;4744;52.576;13.568;2022-07-01T02:54:42;19.10;1.00
9410;DHT22;4744;52.576;13.568;2022-07-01T02:57:09;19.10;1.00
9410;DHT22;4744;52.576;13.568;2022-07-01T02:59:36;19.20;1.00
9410;DHT22;4744;52.576;13.568;2022-07-01T03:02:03;19.20;1.00
9410;DHT22;4744;52.576;13.568;2022-07-01T03:04:32;19.20;1.00
9410;DHT22;4744;52.576;13.568;2022-07-01T03:06:59;19.20;1.00
9410;DHT22;4744;52.576;13.568;2022-07-01T03:09:25;19.20;1.00
9410;DHT22;4744;52.576;13.568;2022-07-01T03:11:53;19.20;1.00
9410;DHT22;4744;52.576;13.568;2022-07-01T03:14:20;19.30;1.00
9410;DHT22;4744;52.576;13.568;2022-07-01T03:16:47;19.30;1.00
9410;DHT22;4744;52.576;13.568;2022-07-01T03:19:14;19.30;1.00
9410;DHT22;4744;52.576;13.568;2022-07-01T03:21:42;19.30;1.00
9410;DHT22;4744;52.576;13.568;2022-07-01T03:24:09;19.40;1.00
9410;DHT22;4744;52.576;13.568;2022-07-01T03:26:35;19.40;1.00
9410;DHT22;4744;52.576;13.568;2022-07-01T03:29:02;19.40;1.00
9410;DHT22;4744;52.576;13.568;2022-07-01T03:31:29;19.40;1.00
9410;DHT22;4744;52.576;13.568;2022-07-01T03:33:56;19.50;1.00
9410;DHT22;4744;52.576;13.568;2022-07-01T03:36:23;19.50;1.00
9410;DHT22;4744;52.576;13.568;2022-07-01T03:38:51;19.60;1.00
9410;DHT22;4744;52.576;13.568;2022-07-01T03:41:18;19.60;1.00
9410;DHT22;4744;52.576;13.568;2022-07-01T03:43:45;19.60;1.00
9410;DHT22;4744;52.576;13.568;2022-07-01T03:46:12;19.70;1.00
9410;DHT22;4744;52.576;13.568;2022-07-01T03:48:39;19.70;1.00
9410;DHT22;4744;52.576;13.568;2022-07-01T03:51:06;19.80;1.00
9410;DHT22;4744;52.576;13.568;2022-07-01T03:53:33;19.80;1.00
9410;DHT22;4744;52.576;13.568;2022-07-01T03:56:19;19.90;1.00
9410;DHT22;4744;52.576;13.568;2022-07-01T03:58:46;19.90;1.00
9410;DHT22;4744;52.576;13.568;2022-07-01T04:01:13;20.00;1.00
9410;DHT22;4744;52.576;13.568;2022-07-01T04:03:39;20.00;1.00
9410;DHT22;4744;52.576;13.568;2022-07-01T04:06:06;20.00;1.00
9410;DHT22;4744;52.576;13.568;2022-07-01T04:08:34;20.10;1.00
9410;DHT22;4744;52.576;13.568;2022-07-01T04:11:01;20.20;1.00
9410;DHT22;4744;52.576;13.568;2022-07-01T04:13:29;20.20;1.00
9410;DHT22;4744;52.576;13.568;2022-07-01T04:15:58;20.30;1.00
9410;DHT22;4744;52.576;13.568;2022-07-01T04:18:25;20.40;1.00
9410;DHT22;4744;52.576;13.568;2022-07-01T04:20:52;20.40;1.00
9410;DHT22;4744;52.576;13.568;2022-07-01T04:23:36;20.50;1.00
9410;DHT22;4744;52.576;13.568;2022-07-01T04:26:03;20.50;1.00
9410;DHT22;4744;52.576;13.568;2022-07-01T04:28:31;20.60;1.00
9410;DHT22;4744;52.576;13.568;2022-07-01T04:30:58;20.70;1.00
9410;DHT22;4744;52.576;13.568;2022-07-01T04:33:25;20.80;1.00
9410;DHT22;4744;52.576;13.568;2022-07-01T04:35:52;20.80;1.00
9410;DHT22;4744;52.576;13.568;2022-07-01T04:38:19;20.90;1.00
9410;DHT22;4744;52.576;13.568;2022-07-01T04:40:45;21.00;1.00
9410;DHT22;4744;52.576;13.568;2022-07-01T04:43:26;21.10;1.00
9410;DHT22;4744;52.576;13.568;2022-07-01T04:45:55;21.10;1.00
9410;DHT22;4744;52.576;13.568;2022-07-01T04:48:22;21.20;1.00
9410;DHT22;4744;52.576;13.568;2022-07-01T04:50:49;21.20;1.00
9410;DHT22;4744;52.576;13.568;2022-07-01T04:53:16;21.30;1.00
9410;DHT22;4744;52.576;13.568;2022-07-01T04:55:42;21.40;1.00
9410;DHT22;4744;52.576;13.568;2022-07-01T04:58:09;21.50;1.00
9410;DHT22;4744;52.576;13.568;2022-07-01T05:00:36;21.60;1.00
9410;DHT22;4744;52.576;13.568;2022-07-01T05:03:04;21.60;1.00
9410;DHT22;4744;52.576;13.568;2022-07-01T05:05:31;21.80;1.00
9410;DHT22;4744;52.576;13.568;2022-07-01T05:07:58;21.80;1.00
9410;DHT22;4744;52.576;13.568;2022-07-01T05:10:25;21.90;1.00
9410;DHT22;4744;52.576;13.568;2022-07-01T05:12:54;22.00;1.00
9410;DHT22;4744;52.576;13.568;2022-07-01T05:15:21;22.10;1.00
9410;DHT22;4744;52.576;13.568;2022-07-01T05:17:47;22.20;1.00
9410;DHT22;4744;52.576;13.568;2022-07-01T05:20:33;22.30;1.00
9410;DHT22;4744;52.576;13.568;2022-07-01T05:23:17;22.50;1.00
9410;DHT22;4744;52.576;13.568;2022-07-01T05:25:44;22.60;1.00
9410;DHT22;4744;52.576;13.568;2022-07-01T05:28:11;22.70;1.00
9410;DHT22;4744;52.576;13.568;2022-07-01T05:30:38;22.80;1.00
9410;DHT22;4744;52.576;13.568;2022-07-01T05:33:04;22.90;1.00
9410;DHT22;4744;52.576;13.568;2022-07-01T05:35:32;23.10;1.00
9410;DHT22;4744;52.576;13.568;2022-07-01T05:37:59;23.20;1.00
9410;DHT22;4744;52.576;13.568;2022-07-01T05:40:26;23.30;1.00
9410;DHT22;4744;52.576;13.568;2022-07-01T05:42:53;23.40;1.00
9410;DHT22;4744;52.576;13.568;2022-07-01T05:45:21;23.50;1.00
9410;DHT22;4744;52.576;13.568;2022-07-01T05:47:47;23.60;1.00
9410;DHT22;4744;52.576;13.568;2022-07-01T05:50:14;23.80;1.00
9410;DHT22;4744;52.576;13.568;2022-07-01T05:52:42;23.90;1.00
9410;DHT22;4744;52.576;13.568;2022-07-01T05:55:10;24.00;1.00
9410;DHT22;4744;52.576;13.568;2022-07-01T05:57:37;24.10;1.00
9410;DHT22;4744;52.576;13.568;2022-07-01T06:00:05;24.20;1.00
9410;DHT22;4744;52.576;13.568;2022-07-01T06:02:32;24.30;1.00
9410;DHT22;4744;52.576;13.568;2022-07-01T06:04:59;24.40;1.00
9410;DHT22;4744;52.576;13.568;2022-07-01T06:07:26;24.50;1.00
9410;DHT22;4744;52.576;13.568;2022-07-01T06:09:54;24.60;1.00
9410;DHT22;4744;52.576;13.568;2022-07-01T06:12:21;24.70;1.00
9410;DHT22;4744;52.576;13.568;2022-07-01T06:14:49;24.70;1.00
9410;DHT22;4744;52.576;13.568;2022-07-01T06:17:16;24.80;1.00
9410;DHT22;4744;52.576;13.568;2022-07-01T06:19:43;24.70;1.00
9410;DHT22;4744;52.576;13.568;2022-07-01T06:22:10;24.70;1.00
9410;DHT22;4744;52.576;13.568;2022-07-01T06:24:42;24.60;1.00
9410;DHT22;4744;52.576;13.568;2022-07-01T06:27:11;24.60;1.00
9410;DHT22;4744;52.576;13.568;2022-07-01T06:29:38;24.50;1.00
9410;DHT22;4744;52.576;13.568;2022-07-01T06:32:05;24.50;1.00
9410;DHT22;4744;52.576;13.568;2022-07-01T06:34:33;24.50;1.00
9410;DHT22;4744;52.576;13.568;2022-07-01T06:36:59;24.50;1.00
9410;DHT22;4744;52.576;13.568;2022-07-01T06:39:27;24.50;1.00
9410;DHT22;4744;52.576;13.568;2022-07-01T06:41:55;24.50;1.00
9410;DHT22;4744;52.576;13.568;2022-07-01T06:44:23;24.60;1.00
9410;DHT22;4744;52.576;13.568;2022-07-01T06:46:50;24.80;1.00
9410;DHT22;4744;52.576;13.568;2022-07-01T06:49:17;24.90;1.00
9410;DHT22;4744;52.576;13.568;2022-07-01T06:51:44;25.00;1.00
9410;DHT22;4744;52.576;13.568;2022-07-01T06:54:10;25.00;1.00
9410;DHT22;4744;52.576;13.568;2022-07-01T06:56:38;25.10;1.00
9410;DHT22;4744;52.576;13.568;2022-07-01T06:59:04;25.10;1.00
9410;DHT22;4744;52.576;13.568;2022-07-01T07:01:33;25.20;1.00
9410;DHT22;4744;52.576;13.568;2022-07-01T07:03:59;25.20;1.00
9410;DHT22;4744;52.576;13.568;2022-07-01T07:06:26;25.30;1.00
9410;DHT22;4744;52.576;13.568;2022-07-01T07:08:54;25.50;1.00
9410;DHT22;4744;52.576;13.568;2022-07-01T07:11:21;25.60;1.00
9410;DHT22;4744;52.576;13.568;2022-07-01T07:13:48;25.80;1.00
9410;DHT22;4744;52.576;13.568;2022-07-01T07:16:15;25.80;1.00
9410;DHT22;4744;52.576;13.568;2022-07-01T07:18:47;25.60;1.00
9410;DHT22;4744;52.576;13.568;2022-07-01T07:21:14;25.50;1.00
9410;DHT22;4744;52.576;13.568;2022-07-01T07:23:41;25.40;1.00
9410;DHT22;4744;52.576;13.568;2022-07-01T07:26:08;25.30;1.00
9410;DHT22;4744;52.576;13.568;2022-07-01T07:28:35;25.20;1.00
9410;DHT22;4744;52.576;13.568;2022-07-01T07:31:02;25.30;1.00
9410;DHT22;4744;52.576;13.568;2022-07-01T07:33:29;25.30;1.00
9410;DHT22;4744;52.576;13.568;2022-07-01T07:35:57;25.40;1.00
9410;DHT22;4744;52.576;13.568;2022-07-01T07:38:24;25.50;1.00
9410;DHT22;4744;52.576;13.568;2022-07-01T07:40:51;25.50;1.00
9410;DHT22;4744;52.576;13.568;2022-07-01T07:43:18;25.60;1.00
9410;DHT22;4744;52.576;13.568;2022-07-01T07:45:45;25.60;1.00
9410;DHT22;4744;52.576;13.568;2022-07-01T07:48:11;25.80;1.00
9410;DHT22;4744;52.576;13.568;2022-07-01T07:50:38;25.90;1.00
9410;DHT22;4744;52.576;13.568;2022-07-01T07:53:07;26.00;1.00
9410;DHT22;4744;52.576;13.568;2022-07-01T07:55:34;26.10;1.00
9410;DHT22;4744;52.576;13.568;2022-07-01T07:58:01;26.20;1.00
9410;DHT22;4744;52.576;13.568;2022-07-01T08:00:28;26.40;1.00
9410;DHT22;4744;52.576;13.568;2022-07-01T08:02:55;26.40;1.00
9410;DHT22;4744;52.576;13.568;2022-07-01T08:05:21;26.30;1.00
9410;DHT22;4744;52.576;13.568;2022-07-01T08:07:48;26.20;1.00
9410;DHT22;4744;52.576;13.568;2022-07-01T08:10:17;26.10;1.00
9410;DHT22;4744;52.576;13.568;2022-07-01T08:12:43;26.10;1.00
9410;DHT22;4744;52.576;13.568;2022-07-01T08:15:10;26.00;1.00
9410;DHT22;4744;52.576;13.568;2022-07-01T08:17:37;26.00;1.00
9410;DHT22;4744;52.576;13.568;2022-07-01T08:20:05;26.10;1.00
9410;DHT22;4744;52.576;13.568;2022-07-01T08:22:32;26.20;1.00
9410;DHT22;4744;52.576;13.568;2022-07-01T08:24:59;26.40;1.00
9410;DHT22;4744;52.576;13.568;2022-07-01T08:27:27;26.50;1.00
9410;DHT22;4744;52.576;13.568;2022-07-01T08:29:54;26.60;1.00
9410;DHT22;4744;52.576;13.568;2022-07-01T08:32:20;26.70;1.00
9410;DHT22;4744;52.576;13.568;2022-07-01T08:34:50;26.90;1.00
9410;DHT22;4744;52.576;13.568;2022-07-01T08:37:16;27.00;1.00
9410;DHT22;4744;52.576;13.568;2022-07-01T08:39:43;27.10;1.00
9410;DHT22;4744;52.576;13.568;2022-07-01T08:42:10;27.10;1.00
9410;DHT22;4744;52.576;13.568;2022-07-01T08:44:38;27.20;1.00
9410;DHT22;4744;52.576;13.568;2022-07-01T08:47:05;27.30;1.00
9410;DHT22;4744;52.576;13.568;2022-07-01T08:49:37;27.40;1.00
9410;DHT22;4744;52.576;13.568;2022-07-01T08:52:04;27.30;1.00
9410;DHT22;4744;52.576;13.568;2022-07-01T08:54:31;27.20;1.00
9410;DHT22;4744;52.576;13.568;2022-07-01T08:56:57;27.10;1.00
9410;DHT22;4744;52.576;13.568;2022-07-01T08:59:25;27.10;1.00
9410;DHT22;4744;52.576;13.568;2022-07-01T09:01:58;27.00;1.00
9410;DHT22;4744;52.576;13.568;2022-07-01T09:04:26;26.90;1.00
9410;DHT22;4744;52.576;13.568;2022-07-01T09:07:01;26.90;1.00
9410;DHT22;4744;52.576;13.568;2022-07-01T09:09:33;26.80;1.00
9410;DHT22;4744;52.576;13.568;2022-07-01T09:12:01;26.80;1.00
9410;DHT22;4744;52.576;13.568;2022-07-01T09:14:29;26.90;1.00
9410;DHT22;4744;52.576;13.568;2022-07-01T09:16:58;26.90;1.00
9410;DHT22;4744;52.576;13.568;2022-07-01T09:19:27;27.00;1.00
9410;DHT22;4744;52.576;13.568;2022-07-01T09:21:55;27.00;1.00
9410;DHT22;4744;52.576;13.568;2022-07-01T09:24:24;27.00;1.00
9410;DHT22;4744;52.576;13.568;2022-07-01T09:26:53;27.00;1.00
9410;DHT22;4744;52.576;13.568;2022-07-01T09:29:20;27.10;1.00
9410;DHT22;4744;52.576;13.568;2022-07-01T09:31:51;27.20;1.00
9410;DHT22;4744;52.576;13.568;2022-07-01T09:34:19;27.10;1.00
9410;DHT22;4744;52.576;13.568;2022-07-01T09:36:52;27.10;1.00
9410;DHT22;4744;52.576;13.568;2022-07-01T09:39:19;27.10;1.00
9410;DHT22;4744;52.576;13.568;2022-07-01T09:41:46;27.00;1.00
9410;DHT22;4744;52.576;13.568;2022-07-01T09:44:13;26.90;1.00
9410;DHT22;4744;52.576;13.568;2022-07-01T09:46:52;26.80;1.00
9410;DHT22;4744;52.576;13.568;2022-07-01T09:49:20;26.70;1.00
9410;DHT22;4744;52.576;13.568;2022-07-01T09:51:48;26.50;1.00
9410;DHT22;4744;52.576;13.568;2022-07-01T09:54:15;26.30;1.00
9410;DHT22;4744;52.576;13.568;2022-07-01T09:56:42;25.90;1.00
9410;DHT22;4744;52.576;13.568;2022-07-01T09:59:09;25.50;1.00
9410;DHT22;4744;52.576;13.568;2022-07-01T10:01:38;25.10;1.00
9410;DHT22;4744;52.576;13.568;2022-07-01T10:04:07;24.60;1.00
9410;DHT22;4744;52.576;13.568;2022-07-01T10:06:46;24.30;1.00
9410;DHT22;4744;52.576;13.568;2022-07-01T10:09:34;23.90;1.00
9410;DHT22;4744;52.576;13.568;2022-07-01T10:12:26;23.60;1.00
9410;DHT22;4744;52.576;13.568;2022-07-01T10:14:56;23.40;1.00
9410;DHT22;4744;52.576;13.568;2022-07-01T10:17:29;23.40;1.00
9410;DHT22;4744;52.576;13.568;2022-07-01T10:20:05;23.40;1.00
9410;DHT22;4744;52.576;13.568;2022-07-01T10:22:35;23.50;1.00
9410;DHT22;4744;52.576;13.568;2022-07-01T10:25:30;23.30;1.00
9410;DHT22;4744;52.576;13.568;2022-07-01T10:28:20;23.40;1.00
9410;DHT22;4744;52.576;13.568;2022-07-01T10:30:49;23.60;1.00
9410;DHT22;4744;52.576;13.568;2022-07-01T10:33:34;23.50;1.00
9410;DHT22;4744;52.576;13.568;2022-07-01T10:36:19;23.40;1.00
9410;DHT22;4744;52.576;13.568;2022-07-01T10:39:12;23.50;1.00
9410;DHT22;4744;52.576;13.568;2022-07-01T10:41:42;23.70;1.00
9410;DHT22;4744;52.576;13.568;2022-07-01T10:44:21;23.70;1.00
9410;DHT22;4744;52.576;13.568;2022-07-01T10:46:50;23.70;1.00
9410;DHT22;4744;52.576;13.568;2022-07-01T10:49:51;23.60;1.00
9410;DHT22;4744;52.576;13.568;2022-07-01T10:52:21;23.30;1.00
9410;DHT22;4744;52.576;13.568;2022-07-01T10:54:51;23.00;1.00
9410;DHT22;4744;52.576;13.568;2022-07-01T10:57:21;22.90;1.00
9410;DHT22;4744;52.576;13.568;2022-07-01T10:59:49;22.90;1.00
9410;DHT22;4744;52.576;13.568;2022-07-01T11:02:18;22.80;1.00
9410;DHT22;4744;52.576;13.568;2022-07-01T11:04:45;22.70;1.00
9410;DHT22;4744;52.576;13.568;2022-07-01T11:07:13;22.60;1.00
9410;DHT22;4744;52.576;13.568;2022-07-01T11:09:40;22.50;1.00
9410;DHT22;4744;52.576;13.568;2022-07-01T11:12:09;22.30;1.00
9410;DHT22;4744;52.576;13.568;2022-07-01T11:14:36;21.80;1.00
9410;DHT22;4744;52.576;13.568;2022-07-01T11:17:04;21.60;1.00
9410;DHT22;4744;52.576;13.568;2022-07-01T11:19:31;21.50;1.00
9410;DHT22;4744;52.576;13.568;2022-07-01T11:21:58;21.30;1.00
9410;DHT22;4744;52.576;13.568;2022-07-01T11:24:25;21.20;1.00
9410;DHT22;4744;52.576;13.568;2022-07-01T11:26:55;21.00;1.00
9410;DHT22;4744;52.576;13.568;2022-07-01T11:29:27;20.80;1.00
9410;DHT22;4744;52.576;13.568;2022-07-01T11:31:54;20.60;1.00
9410;DHT22;4744;52.576;13.568;2022-07-01T11:34:21;20.50;1.00
9410;DHT22;4744;52.576;13.568;2022-07-01T11:36:48;20.40;1.00
9410;DHT22;4744;52.576;13.568;2022-07-01T11:39:32;20.30;1.00
9410;DHT22;4744;52.576;13.568;2022-07-01T11:42:03;20.20;1.00
9410;DHT22;4744;52.576;13.568;2022-07-01T11:44:34;20.10;1.00
9410;DHT22;4744;52.576;13.568;2022-07-01T11:47:02;20.00;1.00
9410;DHT22;4744;52.576;13.568;2022-07-01T11:49:30;20.00;1.00
9410;DHT22;4744;52.576;13.568;2022-07-01T11:51:58;20.00;1.00
9410;DHT22;4744;52.576;13.568;2022-07-01T11:54:25;20.00;1.00
9410;DHT22;4744;52.576;13.568;2022-07-01T11:56:52;19.80;1.00
9410;DHT22;4744;52.576;13.568;2022-07-01T11:59:19;19.70;1.00
9410;DHT22;4744;52.576;13.568;2022-07-01T12:01:54;19.60;1.00
9410;DHT22;4744;52.576;13.568;2022-07-01T12:04:22;19.70;1.00
9410;DHT22;4744;52.576;13.568;2022-07-01T12:06:49;19.70;1.00
9410;DHT22;4744;52.576;13.568;2022-07-01T12:09:18;19.70;1.00
9410;DHT22;4744;52.576;13.568;2022-07-01T12:11:46;19.80;1.00
9410;DHT22;4744;52.576;13.568;2022-07-01T12:14:19;19.70;1.00
9410;DHT22;4744;52.576;13.568;2022-07-01T12:16:46;19.80;1.00
9410;DHT22;4744;52.576;13.568;2022-07-01T12:19:14;20.20;1.00
9410;DHT22;4744;52.576;13.568;2022-07-01T12:21:49;20.60;1.00
9410;DHT22;4744;52.576;13.568;2022-07-01T12:24:17;20.90;1.00
9410;DHT22;4744;52.576;13.568;2022-07-01T12:26:52;20.90;1.00
9410;DHT22;4744;52.576;13.568;2022-07-01T12:29:22;21.00;1.00
9410;DHT22;4744;52.576;13.568;2022-07-01T12:31:56;21.10;1.00
9410;DHT22;4744;52.576;13.568;2022-07-01T12:34:36;21.00;1.00
9410;DHT22;4744;52.576;13.568;2022-07-01T12:37:08;21.00;1.00
9410;DHT22;4744;52.576;13.568;2022-07-01T12:39:44;20.70;1.00
9410;DHT22;4744;52.576;13.568;2022-07-01T12:42:26;20.60;1.00
9410;DHT22;4744;52.576;13.568;2022-07-01T12:44:55;20.50;1.00
9410;DHT22;4744;52.576;13.568;2022-07-01T12:47:25;20.50;1.00
9410;DHT22;4744;52.576;13.568;2022-07-01T12:50:13;20.40;1.00
9410;DHT22;4744;52.576;13.568;2022-07-01T12:52:41;20.40;1.00
9410;DHT22;4744;52.576;13.568;2022-07-01T12:55:16;20.20;1.00
9410;DHT22;4744;52.576;13.568;2022-07-01T12:57:45;20.00;1.00
9410;DHT22;4744;52.576;13.568;2022-07-01T13:00:13;20.00;1.00
9410;DHT22;4744;52.576;13.568;2022-07-01T13:02:40;19.90;1.00
9410;DHT22;4744;52.576;13.568;2022-07-01T13:05:07;20.00;1.00
9410;DHT22;4744;52.576;13.568;2022-07-01T13:07:35;20.00;1.00
9410;DHT22;4744;52.576;13.568;2022-07-01T13:10:03;20.00;1.00
9410;DHT22;4744;52.576;13.568;2022-07-01T13:12:30;20.00;1.00
9410;DHT22;4744;52.576;13.568;2022-07-01T13:14:57;20.00;1.00
9410;DHT22;4744;52.576;13.568;2022-07-01T13:17:24;20.00;1.00
9410;DHT22;4744;52.576;13.568;2022-07-01T13:19:51;19.90;1.00
9410;DHT22;4744;52.576;13.568;2022-07-01T13:22:18;19.80;1.00
9410;DHT22;4744;52.576;13.568;2022-07-01T13:24:46;19.80;1.00
9410;DHT22;4744;52.576;13.568;2022-07-01T13:27:13;19.80;1.00
9410;DHT22;4744;52.576;13.568;2022-07-01T13:29:40;19.80;1.00
9410;DHT22;4744;52.576;13.568;2022-07-01T13:32:07;19.80;1.00
9410;DHT22;4744;52.576;13.568;2022-07-01T13:34:34;19.70;1.00
9410;DHT22;4744;52.576;13.568;2022-07-01T13:37:01;19.60;1.00
9410;DHT22;4744;52.576;13.568;2022-07-01T13:39:28;19.50;1.00
9410;DHT22;4744;52.576;13.568;2022-07-01T13:41:56;19.30;1.00
9410;DHT22;4744;52.576;13.568;2022-07-01T13:44:23;19.30;1.00
9410;DHT22;4744;52.576;13.568;2022-07-01T13:46:49;19.30;1.00
9410;DHT22;4744;52.576;13.568;2022-07-01T13:49:17;19.30;1.00
9410;DHT22;4744;52.576;13.568;2022-07-01T13:51:44;19.30;1.00
9410;DHT22;4744;52.576;13.568;2022-07-01T13:54:12;19.30;1.00
9410;DHT22;4744;52.576;13.568;2022-07-01T13:56:39;19.30;1.00
9410;DHT22;4744;52.576;13.568;2022-07-01T13:59:07;19.20;1.00
9410;DHT22;4744;52.576;13.568;2022-07-01T14:01:35;19.20;1.00
9410;DHT22;4744;52.576;13.568;2022-07-01T14:04:01;19.10;1.00
9410;DHT22;4744;52.576;13.568;2022-07-01T14:06:28;19.00;1.00
9410;DHT22;4744;52.576;13.568;2022-07-01T14:08:55;18.90;1.00
9410;DHT22;4744;52.576;13.568;2022-07-01T14:11:22;18.80;1.00
9410;DHT22;4744;52.576;13.568;2022-07-01T14:13:49;18.80;1.00
9410;DHT22;4744;52.576;13.568;2022-07-01T14:16:17;18.80;1.00
9410;DHT22;4744;52.576;13.568;2022-07-01T14:18:44;18.80;1.00
9410;DHT22;4744;52.576;13.568;2022-07-01T14:21:11;18.80;1.00
9410;DHT22;4744;52.576;13.568;2022-07-01T14:23:38;18.80;1.00
9410;DHT22;4744;52.576;13.568;2022-07-01T14:26:05;18.80;1.00
9410;DHT22;4744;52.576;13.568;2022-07-01T14:28:32;18.80;1.00
9410;DHT22;4744;52.576;13.568;2022-07-01T14:30:58;18.90;1.00
9410;DHT22;4744;52.576;13.568;2022-07-01T14:33:27;18.90;1.00
9410;DHT22;4744;52.576;13.568;2022-07-01T14:35:53;18.80;1.00
9410;DHT22;4744;52.576;13.568;2022-07-01T14:38:20;18.70;1.00
9410;DHT22;4744;52.576;13.568;2022-07-01T14:40:47;18.60;1.00
9410;DHT22;4744;52.576;13.568;2022-07-01T14:43:14;18.50;1.00
9410;DHT22;4744;52.576;13.568;2022-07-01T14:45:41;18.40;1.00
9410;DHT22;4744;52.576;13.568;2022-07-01T14:48:08;18.40;1.00
9410;DHT22;4744;52.576;13.568;2022-07-01T14:50:37;18.40;1.00
9410;DHT22;4744;52.576;13.568;2022-07-01T14:53:03;18.30;1.00
9410;DHT22;4744;52.576;13.568;2022-07-01T14:55:30;18.30;1.00
9410;DHT22;4744;52.576;13.568;2022-07-01T14:57:57;18.20;1.00
9410;DHT22;4744;52.576;13.568;2022-07-01T15:00:24;18.10;1.00
9410;DHT22;4744;52.576;13.568;2022-07-01T15:02:51;18.20;1.00
9410;DHT22;4744;52.576;13.568;2022-07-01T15:05:18;18.10;1.00
9410;DHT22;4744;52.576;13.568;2022-07-01T15:07:46;18.00;1.00
9410;DHT22;4744;52.576;13.568;2022-07-01T15:10:13;18.00;1.00
9410;DHT22;4744;52.576;13.568;2022-07-01T15:12:40;17.90;1.00
9410;DHT22;4744;52.576;13.568;2022-07-01T15:15:08;17.90;1.00
9410;DHT22;4744;52.576;13.568;2022-07-01T15:17:41;17.90;1.00
9410;DHT22;4744;52.576;13.568;2022-07-01T15:20:09;17.80;1.00
9410;DHT22;4744;52.576;13.568;2022-07-01T15:22:36;17.90;1.00
9410;DHT22;4744;52.576;13.568;2022-07-01T15:25:06;17.90;1.00
9410;DHT22;4744;52.576;13.568;2022-07-01T15:27:34;17.80;1.00
9410;DHT22;4744;52.576;13.568;2022-07-01T15:30:00;17.80;1.00
9410;DHT22;4744;52.576;13.568;2022-07-01T15:32:28;17.80;1.00
9410;DHT22;4744;52.576;13.568;2022-07-01T15:34:55;17.70;1.00
9410;DHT22;4744;52.576;13.568;2022-07-01T15:37:22;17.70;1.00
9410;DHT22;4744;52.576;13.568;2022-07-01T15:39:49;17.70;1.00
9410;DHT22;4744;52.576;13.568;2022-07-01T15:42:17;17.70;1.00
9410;DHT22;4744;52.576;13.568;2022-07-01T15:44:44;17.70;1.00
9410;DHT22;4744;52.576;13.568;2022-07-01T15:47:11;17.70;1.00
9410;DHT22;4744;52.576;13.568;2022-07-01T15:49:54;17.70;1.00
9410;DHT22;4744;52.576;13.568;2022-07-01T15:52:22;17.70;1.00
9410;DHT22;4744;52.576;13.568;2022-07-01T15:54:49;17.70;1.00
9410;DHT22;4744;52.576;13.568;2022-07-01T15:57:17;17.70;1.00
9410;DHT22;4744;52.576;13.568;2022-07-01T15:59:44;17.70;1.00
9410;DHT22;4744;52.576;13.568;2022-07-01T16:02:11;17.70;1.00
9410;DHT22;4744;52.576;13.568;2022-07-01T16:04:39;17.70;1.00
9410;DHT22;4744;52.576;13.568;2022-07-01T16:07:08;17.70;1.00
9410;DHT22;4744;52.576;13.568;2022-07-01T16:09:39;17.60;1.00